Time;durP1;ratioP1;P1;durP2;ratioP2;P2;SDS_P1;SDS_P2;PMS_P1;PMS_P2;Temp;Humidity;BMP_temperature;BMP_pressure;BME280_temperature;BME280_humidity;BME280_pressure;Samples;Min_cycle;Max_cycle;Signal;HPM_P1;HPM_P2
2021/01/04 00:02:11;;;;;;;48.23;36.13;;;1.40;99.90;;;;;;5081609;28;20543;-70
2021/01/04 00:04:58;;;;;;;50.07;36.90;;;1.30;99.90;;;;;;5086760;28;20204;-71
2021/01/04 00:07:48;;;;;;;46.13;34.93;;;1.30;99.90;;;;;;5072736;28;20183;-70
2021/01/04 00:10:32;;;;;;;47.23;34.00;;;1.40;99.90;;;;;;5074567;28;20186;-70
2021/01/04 00:13:48;;;;;;;47.20;34.30;;;1.30;99.90;;;;;;5076539;28;20208;-70
2021/01/04 00:16:22;;;;;;;46.03;34.93;;;1.30;99.90;;;;;;5060885;28;20228;-70
2021/01/04 00:19:06;;;;;;;51.83;37.30;;;1.30;99.90;;;;;;5073943;28;20210;-70
2021/01/04 00:21:39;;;;;;;44.63;32.77;;;1.30;99.90;;;;;;5084809;28;20267;-72
2021/01/04 00:24:21;;;;;;;50.23;36.57;;;1.30;99.90;;;;;;5079005;28;20186;-70
2021/01/04 00:26:56;;;;;;;46.17;33.90;;;1.30;99.90;;;;;;5080453;28;20210;-70
2021/01/04 00:29:22;;;;;;;52.00;36.40;;;1.30;99.90;;;;;;5076103;28;20176;-71
2021/01/04 00:31:55;;;;;;;49.43;35.63;;;1.30;99.90;;;;;;5079316;28;20587;-68
2021/01/04 00:34:30;;;;;;;45.37;34.57;;;1.30;99.90;;;;;;5084827;28;20218;-69
2021/01/04 00:37:14;;;;;;;49.30;34.80;;;1.30;99.90;;;;;;5078714;28;20198;-69
2021/01/04 00:40:04;;;;;;;48.80;36.30;;;1.20;99.90;;;;;;5082251;28;20182;-69
2021/01/04 00:42:46;;;;;;;48.77;35.10;;;1.30;99.90;;;;;;5071388;28;20552;-70
2021/01/04 00:45:25;;;;;;;49.83;35.30;;;1.30;99.90;;;;;;5076820;28;20701;-69
2021/01/04 00:47:50;;;;;;;47.13;34.20;;;1.20;99.90;;;;;;5079858;28;20188;-70
2021/01/04 00:50:54;;;;;;;47.57;35.37;;;1.30;99.90;;;;;;5080298;28;20189;-71
2021/01/04 00:53:31;;;;;;;47.73;33.17;;;1.30;99.90;;;;;;5077662;28;20257;-71
2021/01/04 00:56:20;;;;;;;52.23;35.70;;;1.30;99.90;;;;;;5076185;28;20215;-70
2021/01/04 00:59:04;;;;;;;50.03;36.20;;;1.30;99.90;;;;;;5081329;28;20196;-70
2021/01/04 01:02:00;;;;;;;49.47;35.73;;;1.30;99.90;;;;;;5085689;28;20191;-70
2021/01/04 01:05:03;;;;;;;53.30;35.57;;;1.30;99.90;;;;;;5078062;28;20214;-69
2021/01/04 01:07:53;;;;;;;49.83;34.63;;;1.30;99.90;;;;;;5083180;28;20193;-70
2021/01/04 01:10:19;;;;;;;53.20;35.33;;;1.30;99.90;;;;;;5073120;28;20181;-69
2021/01/04 01:12:59;;;;;;;45.07;32.97;;;1.30;99.90;;;;;;5084845;28;20798;-69
2021/01/04 01:16:08;;;;;;;49.03;35.37;;;1.30;99.90;;;;;;5088419;28;20664;-69
2021/01/04 01:18:56;;;;;;;46.23;34.80;;;1.30;99.90;;;;;;5091943;27;20278;-71
2021/01/04 01:21:22;;;;;;;48.03;35.10;;;1.30;99.90;;;;;;5095842;28;20660;-71
2021/01/04 01:23:48;;;;;;;52.00;38.03;;;1.30;99.90;;;;;;5096804;28;20172;-69
2021/01/04 01:26:38;;;;;;;47.47;35.83;;;1.30;99.90;;;;;;5089938;28;20237;-70
2021/01/04 01:29:16;;;;;;;50.33;35.30;;;1.40;99.90;;;;;;5086490;28;20175;-68
2021/01/04 01:32:06;;;;;;;50.50;35.00;;;1.40;99.90;;;;;;5077031;28;20227;-71
2021/01/04 01:34:42;;;;;;;53.10;36.77;;;1.40;99.90;;;;;;5080597;28;20583;-69
2021/01/04 01:37:23;;;;;;;51.13;36.73;;;1.40;99.90;;;;;;5078771;28;20199;-69
2021/01/04 01:40:07;;;;;;;49.73;36.23;;;1.40;99.90;;;;;;5078402;28;20188;-69
2021/01/04 01:43:18;;;;;;;48.87;34.60;;;1.40;99.90;;;;;;5082554;28;20201;-69
2021/01/04 01:46:12;;;;;;;50.00;37.07;;;1.40;99.90;;;;;;5048467;28;20220;-68
2021/01/04 01:48:51;;;;;;;51.07;36.77;;;1.40;99.90;;;;;;5086934;28;20182;-69
2021/01/04 01:51:40;;;;;;;53.70;38.43;;;1.40;99.90;;;;;;5081038;28;20182;-71
2021/01/04 01:54:23;;;;;;;55.30;37.47;;;1.40;99.90;;;;;;5089385;28;20273;-68
2021/01/04 01:57:08;;;;;;;54.73;37.60;;;1.40;99.90;;;;;;5082253;28;20209;-71
2021/01/04 02:00:08;;;;;;;52.70;37.00;;;1.40;99.90;;;;;;5073401;28;20532;-69
2021/01/04 02:03:17;;;;;;;52.47;36.50;;;1.40;99.90;;;;;;5055219;28;20244;-69
2021/01/04 02:05:54;;;;;;;51.77;35.87;;;1.40;99.90;;;;;;5050922;28;20227;-69
2021/01/04 02:08:27;;;;;;;50.43;35.87;;;1.40;99.90;;;;;;5059528;28;20193;-71
2021/01/04 02:10:56;;;;;;;48.10;36.03;;;1.40;99.90;;;;;;5061649;28;20185;-71
2021/01/04 02:13:28;;;;;;;51.93;35.07;;;1.40;99.90;;;;;;5064612;28;20191;-70
2021/01/04 02:16:00;;;;;;;48.97;36.00;;;1.40;99.90;;;;;;5055464;28;20812;-68
2021/01/04 02:18:51;;;;;;;52.53;37.60;;;1.30;99.90;;;;;;5057605;28;20199;-69
2021/01/04 02:21:19;;;;;;;52.37;37.60;;;1.30;99.90;;;;;;5067757;28;20194;-69
2021/01/04 02:24:10;;;;;;;53.80;37.67;;;1.30;99.90;;;;;;5061638;28;20226;-70
2021/01/04 02:26:41;;;;;;;57.93;37.27;;;1.30;99.90;;;;;;5060287;28;20647;-70
2021/01/04 02:29:13;;;;;;;49.70;36.67;;;1.30;99.90;;;;;;5054658;28;20191;-68
2021/01/04 02:31:44;;;;;;;53.60;37.37;;;1.30;99.90;;;;;;5061891;28;20215;-70
2021/01/04 02:34:14;;;;;;;54.30;38.00;;;1.30;99.90;;;;;;5065196;28;20258;-71
2021/01/04 02:36:47;;;;;;;55.40;37.80;;;1.40;99.90;;;;;;5057426;28;20679;-70
2021/01/04 02:39:18;;;;;;;56.60;38.17;;;1.30;99.90;;;;;;5078906;28;20202;-70
2021/01/04 02:41:56;;;;;;;50.13;35.93;;;1.40;99.90;;;;;;5076804;28;20182;-70
2021/01/04 02:44:23;;;;;;;51.83;36.03;;;1.40;99.90;;;;;;5076696;28;20234;-70
2021/01/04 02:47:08;;;;;;;53.30;36.70;;;1.40;99.90;;;;;;5079936;28;20231;-70
2021/01/04 02:49:53;;;;;;;50.23;34.83;;;1.40;99.90;;;;;;5082429;28;20259;-69
2021/01/04 02:52:34;;;;;;;52.90;36.93;;;1.40;99.90;;;;;;5079130;28;20174;-68
2021/01/04 02:55:07;;;;;;;53.83;35.23;;;1.40;99.90;;;;;;5078515;28;20607;-70
2021/01/04 02:58:10;;;;;;;49.07;34.23;;;1.40;99.90;;;;;;5083484;28;20288;-69
2021/01/04 03:00:36;;;;;;;48.90;34.90;;;1.40;99.90;;;;;;5050968;28;20210;-69
2021/01/04 03:03:04;;;;;;;48.80;35.73;;;1.40;99.90;;;;;;5053514;28;20245;-69
2021/01/04 03:05:30;;;;;;;47.83;34.33;;;1.30;99.90;;;;;;5051816;28;20302;-69
2021/01/04 03:07:59;;;;;;;55.23;36.00;;;1.30;99.90;;;;;;5065754;28;20274;-69
2021/01/04 03:10:24;;;;;;;49.80;36.77;;;1.30;99.90;;;;;;5060347;28;20280;-69
2021/01/04 03:13:09;;;;;;;49.23;35.90;;;1.40;99.90;;;;;;5043618;28;20203;-69
2021/01/04 03:15:51;;;;;;;49.03;35.73;;;1.40;99.90;;;;;;5065507;28;20222;-69
2021/01/04 03:18:26;;;;;;;49.33;34.93;;;1.40;99.90;;;;;;5062454;28;20199;-69
2021/01/04 03:20:52;;;;;;;51.63;36.50;;;1.30;99.90;;;;;;5063952;28;20222;-70
2021/01/04 03:23:18;;;;;;;50.90;36.20;;;1.30;99.90;;;;;;5064851;28;20194;-69
2021/01/04 03:25:57;;;;;;;50.97;37.30;;;1.30;99.90;;;;;;5058914;28;20217;-70
2021/01/04 03:28:24;;;;;;;50.67;36.47;;;1.30;99.90;;;;;;5055186;28;20190;-69
2021/01/04 03:30:50;;;;;;;51.20;37.10;;;1.30;99.90;;;;;;5066243;28;20187;-69
2021/01/04 03:33:16;;;;;;;48.10;35.57;;;1.30;99.90;;;;;;5061575;28;20187;-69
2021/01/04 03:35:42;;;;;;;47.77;36.17;;;1.30;99.90;;;;;;5067060;28;20223;-70
2021/01/04 03:38:08;;;;;;;48.63;35.60;;;1.30;99.90;;;;;;5082125;28;20198;-71
2021/01/04 03:40:34;;;;;;;50.43;34.70;;;1.30;99.90;;;;;;5082237;28;20174;-69
2021/01/04 03:42:59;;;;;;;49.30;34.73;;;1.40;99.90;;;;;;5078043;28;20558;-70
2021/01/04 03:45:25;;;;;;;52.93;35.47;;;1.30;99.90;;;;;;5076136;28;20204;-70
2021/01/04 03:47:50;;;;;;;51.00;35.73;;;1.30;99.90;;;;;;5080015;28;20188;-70
2021/01/04 03:50:16;;;;;;;46.23;34.67;;;1.30;99.90;;;;;;5080476;28;20200;-69
2021/01/04 03:52:43;;;;;;;48.03;35.50;;;1.30;99.90;;;;;;5083417;28;20203;-69
2021/01/04 03:55:09;;;;;;;50.27;35.93;;;1.30;99.90;;;;;;5080651;28;20196;-70
2021/01/04 03:57:34;;;;;;;55.80;37.93;;;1.20;99.90;;;;;;5079559;28;20181;-70
2021/01/04 04:00:00;;;;;;;51.83;36.87;;;1.30;99.90;;;;;;5103397;28;20198;-69
2021/01/04 04:02:26;;;;;;;53.93;36.37;;;1.30;99.90;;;;;;5100458;28;20184;-68
2021/01/04 04:04:51;;;;;;;53.23;36.80;;;1.30;99.90;;;;;;5091103;28;20567;-71
2021/01/04 04:07:17;;;;;;;51.73;36.40;;;1.30;99.90;;;;;;5082344;28;20263;-69
2021/01/04 04:09:46;;;;;;;49.83;37.03;;;1.30;99.90;;;;;;5093559;28;20807;-69
2021/01/04 04:12:12;;;;;;;48.63;35.53;;;1.30;99.90;;;;;;5082914;28;20170;-70
2021/01/04 04:14:37;;;;;;;49.53;36.13;;;1.30;99.90;;;;;;5073974;28;20221;-71
2021/01/04 04:17:03;;;;;;;50.00;36.47;;;1.30;99.90;;;;;;5092427;28;20182;-70
2021/01/04 04:19:28;;;;;;;51.20;35.93;;;1.30;99.90;;;;;;5079030;28;20194;-70
2021/01/04 04:21:54;;;;;;;53.00;36.97;;;1.30;99.90;;;;;;5095581;28;20188;-70
2021/01/04 04:24:21;;;;;;;49.77;36.50;;;1.40;99.90;;;;;;5081818;28;20204;-69
2021/01/04 04:26:47;;;;;;;48.33;35.70;;;1.40;99.90;;;;;;5085219;28;20218;-69
2021/01/04 04:29:13;;;;;;;50.73;36.47;;;1.40;99.90;;;;;;5076839;28;20178;-70
2021/01/04 04:31:43;;;;;;;47.90;35.47;;;1.40;99.90;;;;;;5082059;28;20304;-70
2021/01/04 04:34:08;;;;;;;47.27;34.07;;;1.40;99.90;;;;;;5083455;28;20206;-69
2021/01/04 04:36:34;;;;;;;49.87;35.33;;;1.40;99.90;;;;;;5079871;28;20213;-70
2021/01/04 04:39:00;;;;;;;50.13;35.67;;;1.40;99.90;;;;;;5076029;28;20295;-69
2021/01/04 04:41:38;;;;;;;46.80;35.53;;;1.40;99.90;;;;;;5074852;28;20186;-70
2021/01/04 04:44:28;;;;;;;47.77;34.27;;;1.40;99.90;;;;;;5084264;28;20251;-69
2021/01/04 04:47:35;;;;;;;47.27;34.10;;;1.40;99.90;;;;;;5088785;28;20209;-69
2021/01/04 04:50:36;;;;;;;50.40;44.83;;;1.40;99.90;;;;;;5071709;28;20425;-69
2021/01/04 04:53:28;;;;;;;47.67;35.60;;;1.40;99.90;;;;;;5077781;28;20210;-69
2021/01/04 04:56:16;;;;;;;49.30;35.07;;;1.40;99.90;;;;;;5081792;28;20207;-69
2021/01/04 04:59:08;;;;;;;45.10;32.27;;;1.40;99.90;;;;;;5077249;28;20184;-69
2021/01/04 05:01:55;;;;;;;47.27;34.97;;;1.40;99.90;;;;;;5077886;28;20677;-70
2021/01/04 05:04:36;;;;;;;49.07;35.20;;;1.40;99.90;;;;;;5079013;28;20202;-70
2021/01/04 05:07:13;;;;;;;47.10;34.93;;;1.40;99.90;;;;;;5079421;28;20246;-70
2021/01/04 05:09:59;;;;;;;48.90;34.27;;;1.40;99.90;;;;;;5083182;28;20232;-71
2021/01/04 05:13:03;;;;;;;46.67;33.77;;;1.40;99.90;;;;;;5078057;28;20653;-70
2021/01/04 05:15:39;;;;;;;45.03;33.23;;;1.40;99.90;;;;;;5055685;28;20218;-71
2021/01/04 05:18:33;;;;;;;43.73;32.93;;;1.40;99.90;;;;;;5076700;28;20177;-71
2021/01/04 05:21:17;;;;;;;45.83;34.13;;;1.40;99.90;;;;;;5081067;28;20201;-70
2021/01/04 05:24:20;;;;;;;44.27;32.67;;;1.40;99.90;;;;;;5075329;28;20236;-70
2021/01/04 05:26:57;;;;;;;48.27;34.13;;;1.40;99.90;;;;;;5076341;28;20212;-70
2021/01/04 05:29:26;;;;;;;45.63;33.50;;;1.40;99.90;;;;;;5072269;28;20215;-69
2021/01/04 05:32:10;;;;;;;44.87;34.33;;;1.30;99.90;;;;;;5081855;28;20179;-70
2021/01/04 05:34:41;;;;;;;52.43;35.60;;;1.30;99.90;;;;;;5083227;28;20205;-70
2021/01/04 05:37:32;;;;;;;52.07;37.00;;;1.20;99.90;;;;;;5080352;28;20263;-70
2021/01/04 05:40:40;;;;;;;49.90;34.33;;;1.20;99.90;;;;;;5086451;28;20290;-71
2021/01/04 05:43:27;;;;;;;44.37;33.50;;;1.20;99.90;;;;;;5080472;28;20211;-70
2021/01/04 05:45:57;;;;;;;45.77;33.57;;;1.20;99.90;;;;;;5080084;28;20216;-70
2021/01/04 05:49:00;;;;;;;45.23;32.87;;;1.20;99.90;;;;;;5082903;28;20659;-71
2021/01/04 05:51:29;;;;;;;43.13;31.90;;;1.20;99.90;;;;;;5090194;28;21029;-70
2021/01/04 05:53:55;;;;;;;50.23;35.67;;;1.30;99.90;;;;;;5082220;28;20263;-70
2021/01/04 05:56:27;;;;;;;47.97;33.37;;;1.30;99.90;;;;;;5077707;28;20278;-71
2021/01/04 05:59:04;;;;;;;46.80;33.70;;;1.30;99.90;;;;;;5082644;28;20184;-69
2021/01/04 06:01:30;;;;;;;46.87;34.53;;;1.30;99.90;;;;;;5079104;28;20195;-70
2021/01/04 06:04:00;;;;;;;45.33;32.60;;;1.30;99.90;;;;;;5082202;28;20193;-70
2021/01/04 06:07:00;;;;;;;45.47;31.90;;;1.30;99.90;;;;;;5078627;28;20255;-70
2021/01/04 06:09:27;;;;;;;47.23;33.87;;;1.40;99.90;;;;;;5064061;28;20196;-70
2021/01/04 06:11:59;;;;;;;46.00;33.20;;;1.40;99.90;;;;;;5067277;28;20194;-70
2021/01/04 06:14:28;;;;;;;47.80;32.63;;;1.40;99.90;;;;;;5057547;28;20212;-70
2021/01/04 06:17:02;;;;;;;48.50;35.53;;;1.40;99.90;;;;;;5064008;28;20244;-70
2021/01/04 06:19:32;;;;;;;47.00;33.00;;;1.40;99.90;;;;;;5060594;28;20201;-70
2021/01/04 06:22:00;;;;;;;48.27;33.60;;;1.40;99.90;;;;;;5063114;28;20199;-70
2021/01/04 06:24:28;;;;;;;42.90;32.80;;;1.40;99.90;;;;;;5055514;28;20204;-70
2021/01/04 06:27:16;;;;;;;45.63;33.37;;;1.30;99.90;;;;;;5059243;28;20240;-70
2021/01/04 06:29:48;;;;;;;49.10;34.63;;;1.30;99.90;;;;;;5045333;28;20207;-70
2021/01/04 06:32:32;;;;;;;47.80;34.67;;;1.30;99.90;;;;;;5062910;28;20200;-69
2021/01/04 06:35:01;;;;;;;48.13;34.07;;;1.40;99.90;;;;;;5066060;28;20700;-69
2021/01/04 06:37:30;;;;;;;49.13;35.70;;;1.40;99.90;;;;;;5066176;28;20180;-69
2021/01/04 06:40:11;;;;;;;47.80;34.13;;;1.40;99.90;;;;;;5067775;28;20202;-69
2021/01/04 06:42:40;;;;;;;47.00;33.33;;;1.40;99.90;;;;;;5056119;28;20557;-70
2021/01/04 06:45:18;;;;;;;46.93;35.30;;;1.40;99.90;;;;;;5063274;28;20256;-68
2021/01/04 06:47:57;;;;;;;48.17;33.63;;;1.40;99.90;;;;;;5079901;28;20217;-71
2021/01/04 06:50:30;;;;;;;48.97;34.07;;;1.40;99.90;;;;;;5079888;28;20327;-69
2021/01/04 06:53:14;;;;;;;48.60;34.37;;;1.30;99.90;;;;;;5085533;28;20183;-69
2021/01/04 06:56:03;;;;;;;47.77;34.50;;;1.30;99.90;;;;;;5076170;28;20609;-69
2021/01/04 06:58:59;;;;;;;48.43;36.13;;;1.30;99.90;;;;;;5085263;28;20186;-70
2021/01/04 07:01:33;;;;;;;68.80;53.60;;;1.30;99.90;;;;;;5075100;28;20179;-69
2021/01/04 07:04:07;;;;;;;57.90;45.03;;;1.30;99.90;;;;;;5080016;28;20191;-70
2021/01/04 07:06:58;;;;;;;51.20;38.70;;;1.40;99.90;;;;;;5083946;28;20202;-70
2021/01/04 07:09:48;;;;;;;49.10;35.77;;;1.40;99.90;;;;;;5078381;28;20201;-70
2021/01/04 07:12:44;;;;;;;50.00;35.00;;;1.40;99.90;;;;;;5082149;28;20207;-70
2021/01/04 07:15:28;;;;;;;53.83;38.87;;;1.40;99.90;;;;;;5077723;28;20215;-70
2021/01/04 07:18:20;;;;;;;46.17;35.60;;;1.40;99.90;;;;;;5076964;28;20198;-70
2021/01/04 07:20:45;;;;;;;48.70;33.80;;;1.40;99.90;;;;;;5082389;28;20218;-69
2021/01/04 07:23:26;;;;;;;51.37;34.80;;;1.40;99.90;;;;;;5094020;28;20203;-71
2021/01/04 07:26:01;;;;;;;49.10;38.10;;;1.50;99.90;;;;;;5078296;28;20302;-71
2021/01/04 07:28:49;;;;;;;49.60;34.47;;;1.50;99.90;;;;;;5081273;28;20173;-70
2021/01/04 07:31:41;;;;;;;49.33;34.83;;;1.50;99.90;;;;;;5082134;28;20258;-70
2021/01/04 07:34:25;;;;;;;44.67;32.00;;;1.50;99.90;;;;;;5076978;28;20208;-70
2021/01/04 07:37:06;;;;;;;49.57;36.17;;;1.50;99.90;;;;;;5079782;28;20264;-71
2021/01/04 07:39:44;;;;;;;47.00;33.27;;;1.50;99.90;;;;;;5075658;28;20191;-71
2021/01/04 07:42:22;;;;;;;48.27;35.37;;;1.50;99.90;;;;;;5081939;28;20179;-70
2021/01/04 07:45:09;;;;;;;56.63;39.20;;;1.50;99.90;;;;;;5079639;28;20191;-70
2021/01/04 07:47:56;;;;;;;50.83;34.87;;;1.50;99.90;;;;;;5077348;28;20563;-70
2021/01/04 07:50:31;;;;;;;49.30;34.83;;;1.50;99.90;;;;;;5084951;28;20793;-71
2021/01/04 07:52:59;;;;;;;51.13;37.00;;;1.50;99.90;;;;;;5079942;28;20246;-71
2021/01/04 07:55:47;;;;;;;55.90;41.70;;;1.50;99.90;;;;;;5078050;28;20682;-71
2021/01/04 07:58:34;;;;;;;47.67;34.27;;;1.50;99.90;;;;;;5075604;28;20184;-69
2021/01/04 08:01:38;;;;;;;40.70;31.93;;;1.60;99.90;;;;;;5078698;28;20254;-70
2021/01/04 08:04:15;;;;;;;52.47;38.50;;;1.60;99.90;;;;;;5083748;28;20191;-70
2021/01/04 08:07:23;;;;;;;100.37;61.97;;;1.60;99.90;;;;;;5081966;28;20206;-70
2021/01/04 08:10:04;;;;;;;98.97;56.77;;;1.60;99.90;;;;;;5073098;28;20191;-70
2021/01/04 08:13:00;;;;;;;138.67;70.80;;;1.60;99.90;;;;;;5086950;28;20244;-69
2021/01/04 08:15:34;;;;;;;46.67;31.93;;;1.60;99.90;;;;;;5071544;28;20207;-70
2021/01/04 08:18:13;;;;;;;46.53;33.30;;;1.60;99.90;;;;;;5076282;28;20197;-72
2021/01/04 08:20:49;;;;;;;45.87;34.73;;;1.70;99.90;;;;;;5084424;28;20249;-72
2021/01/04 08:23:46;;;;;;;42.80;32.17;;;1.70;99.90;;;;;;5077014;28;20736;-71
2021/01/04 08:26:40;;;;;;;39.07;28.80;;;1.70;99.90;;;;;;5079009;28;20578;-69
2021/01/04 08:29:41;;;;;;;41.80;30.40;;;1.80;99.90;;;;;;5070842;28;20188;-70
2021/01/04 08:32:26;;;;;;;40.83;30.00;;;1.80;99.90;;;;;;5073193;28;20274;-70
2021/01/04 08:34:52;;;;;;;42.23;29.33;;;1.80;99.90;;;;;;5071561;28;20217;-70
2021/01/04 08:37:38;;;;;;;39.80;30.63;;;1.90;99.90;;;;;;5078693;28;20253;-70
2021/01/04 08:40:23;;;;;;;41.47;30.27;;;1.90;99.90;;;;;;5079612;28;20735;-70
2021/01/04 08:43:03;;;;;;;46.23;31.73;;;1.90;99.90;;;;;;5073636;28;20213;-70
2021/01/04 08:45:45;;;;;;;41.17;32.17;;;2.00;99.90;;;;;;5077057;28;20669;-70
2021/01/04 08:48:17;;;;;;;39.67;30.23;;;2.00;99.90;;;;;;5081208;28;20215;-69
2021/01/04 08:50:45;;;;;;;43.43;31.57;;;2.00;99.90;;;;;;5078030;28;20191;-70
2021/01/04 08:53:22;;;;;;;42.73;31.03;;;2.00;99.90;;;;;;5074613;28;20178;-69
2021/01/04 08:55:49;;;;;;;42.07;31.20;;;2.10;99.90;;;;;;5082312;28;20211;-69
2021/01/04 08:58:21;;;;;;;42.03;31.97;;;2.10;99.90;;;;;;5078181;28;20319;-69
2021/01/04 09:01:25;;;;;;;41.80;31.90;;;2.10;99.90;;;;;;5074633;28;20216;-69
2021/01/04 09:04:08;;;;;;;44.87;32.10;;;2.20;99.90;;;;;;5060316;28;20210;-70
2021/01/04 09:06:37;;;;;;;50.20;36.20;;;2.20;99.90;;;;;;5061302;28;20223;-70
2021/01/04 09:09:19;;;;;;;44.07;32.90;;;2.20;99.90;;;;;;5058492;28;20226;-71
2021/01/04 09:12:06;;;;;;;46.17;32.67;;;2.20;99.90;;;;;;5054009;28;20186;-70
2021/01/04 09:14:45;;;;;;;43.87;33.67;;;2.30;99.90;;;;;;5063868;28;20211;-71
2021/01/04 09:17:38;;;;;;;45.60;33.97;;;2.30;99.90;;;;;;5068292;28;20193;-71
2021/01/04 09:20:29;;;;;;;44.10;34.17;;;2.30;99.90;;;;;;5060674;28;20213;-70
2021/01/04 09:23:09;;;;;;;39.97;30.97;;;2.30;99.90;;;;;;5032807;28;20249;-69
2021/01/04 09:26:01;;;;;;;41.10;31.43;;;2.40;99.90;;;;;;5053665;28;20236;-69
2021/01/04 09:28:36;;;;;;;40.43;31.30;;;2.30;99.90;;;;;;5061966;28;20195;-70
2021/01/04 09:31:02;;;;;;;43.33;29.47;;;2.30;99.90;;;;;;5056732;28;20187;-69
2021/01/04 09:33:29;;;;;;;41.53;32.50;;;2.40;99.90;;;;;;5061565;28;20575;-70
2021/01/04 09:36:03;;;;;;;40.97;32.10;;;2.40;99.90;;;;;;5062866;28;20244;-69
2021/01/04 09:38:29;;;;;;;40.50;31.03;;;2.50;99.90;;;;;;5046257;28;20216;-68
2021/01/04 09:40:59;;;;;;;43.07;31.40;;;2.50;99.90;;;;;;5087513;28;20720;-69
2021/01/04 09:43:28;;;;;;;43.13;31.47;;;2.60;99.90;;;;;;5087263;28;20188;-69
2021/01/04 09:46:07;;;;;;;36.13;29.50;;;2.60;99.90;;;;;;5082419;28;20220;-69
2021/01/04 09:48:55;;;;;;;38.07;29.07;;;2.70;99.90;;;;;;5080386;28;20205;-71
2021/01/04 09:51:31;;;;;;;37.80;29.40;;;2.60;99.90;;;;;;5083137;28;20183;-72
2021/01/04 09:54:02;;;;;;;35.83;28.03;;;2.70;99.90;;;;;;5079848;28;20180;-71
2021/01/04 09:56:32;;;;;;;32.67;26.43;;;2.70;99.90;;;;;;5083191;28;20202;-72
2021/01/04 09:59:27;;;;;;;35.50;27.60;;;2.80;99.90;;;;;;5075955;28;20300;-72
2021/01/04 10:01:55;;;;;;;40.40;34.30;;;2.80;99.90;;;;;;5074394;28;20281;-71
2021/01/04 10:04:26;;;;;;;39.33;32.10;;;2.80;99.80;;;;;;5079885;28;20209;-73
2021/01/04 10:06:52;;;;;;;40.77;30.47;;;2.80;99.70;;;;;;5079398;28;20279;-71
2021/01/04 10:09:18;;;;;;;57.83;41.43;;;2.80;99.50;;;;;;5077904;28;20241;-70
2021/01/04 10:11:46;;;;;;;41.03;31.50;;;2.90;99.80;;;;;;5080380;28;20300;-71
2021/01/04 10:14:14;;;;;;;43.27;33.80;;;2.90;99.70;;;;;;5079719;28;20197;-72
2021/01/04 10:16:44;;;;;;;37.93;29.30;;;2.90;99.90;;;;;;5082890;28;20186;-70
2021/01/04 10:19:23;;;;;;;33.33;27.17;;;3.00;99.90;;;;;;5085157;28;20259;-70
2021/01/04 10:22:00;;;;;;;34.40;28.27;;;3.00;99.10;;;;;;5086234;28;20258;-70
2021/01/04 10:24:37;;;;;;;37.37;28.37;;;3.00;99.60;;;;;;5078920;28;20214;-72
2021/01/04 10:27:05;;;;;;;34.13;26.80;;;3.00;99.40;;;;;;5086064;28;20249;-71
2021/01/04 10:29:31;;;;;;;33.57;28.07;;;3.00;99.40;;;;;;5075113;28;20268;-72
2021/01/04 10:32:11;;;;;;;35.80;26.73;;;3.10;99.80;;;;;;5076105;28;20563;-71
2021/01/04 10:34:44;;;;;;;34.17;28.27;;;3.10;99.50;;;;;;5083302;28;20202;-71
2021/01/04 10:37:44;;;;;;;31.53;24.67;;;3.10;99.40;;;;;;5088645;28;20270;-72
2021/01/04 10:40:16;;;;;;;30.23;24.13;;;3.00;98.40;;;;;;5081138;28;20243;-71
2021/01/04 10:42:44;;;;;;;26.90;22.07;;;2.90;98.20;;;;;;5076400;28;20190;-71
2021/01/04 10:45:20;;;;;;;27.43;22.37;;;2.90;97.90;;;;;;5087528;28;20218;-70
2021/01/04 10:47:52;;;;;;;29.10;22.87;;;2.80;97.50;;;;;;5074440;28;20183;-70
2021/01/04 10:50:22;;;;;;;26.97;21.63;;;2.70;97.30;;;;;;5082857;28;20275;-70
2021/01/04 10:53:09;;;;;;;29.40;23.40;;;2.60;97.50;;;;;;5084781;28;20265;-71
2021/01/04 10:55:48;;;;;;;28.87;22.00;;;2.50;98.00;;;;;;5078808;28;20221;-71
2021/01/04 10:58:27;;;;;;;27.90;22.13;;;2.50;97.60;;;;;;5088223;28;20181;-71
2021/01/04 11:01:05;;;;;;;27.20;21.37;;;2.50;97.50;;;;;;5079803;28;20188;-70
2021/01/04 11:03:31;;;;;;;24.23;20.30;;;2.50;97.50;;;;;;5074447;28;20197;-70
2021/01/04 11:05:56;;;;;;;22.40;19.37;;;2.40;97.20;;;;;;5080383;28;20218;-71
2021/01/04 11:08:25;;;;;;;24.80;20.47;;;2.50;96.80;;;;;;5082842;28;20708;-70
2021/01/04 11:10:56;;;;;;;29.60;21.07;;;2.50;96.60;;;;;;5078973;28;20181;-70
2021/01/04 11:13:27;;;;;;;25.77;19.83;;;2.50;96.80;;;;;;5080720;28;20642;-71
2021/01/04 11:16:05;;;;;;;26.03;20.70;;;2.40;96.80;;;;;;5078406;28;20202;-71
2021/01/04 11:18:31;;;;;;;25.93;20.57;;;2.40;96.70;;;;;;5084514;28;20201;-71
2021/01/04 11:20:57;;;;;;;23.50;19.63;;;2.40;96.70;;;;;;5087519;28;20191;-71
2021/01/04 11:23:23;;;;;;;25.50;19.07;;;2.40;96.70;;;;;;5086520;28;20663;-72
2021/01/04 11:25:48;;;;;;;21.50;17.57;;;2.40;96.10;;;;;;5084958;28;20246;-71
2021/01/04 11:28:14;;;;;;;25.17;19.23;;;2.40;95.00;;;;;;5086038;28;20182;-71
2021/01/04 11:30:40;;;;;;;20.00;16.43;;;2.40;95.00;;;;;;5086794;28;20188;-71
2021/01/04 11:33:06;;;;;;;18.17;15.17;;;2.40;94.90;;;;;;5079733;28;20205;-71
2021/01/04 11:35:32;;;;;;;16.17;14.07;;;2.40;93.30;;;;;;5076133;28;20219;-71
2021/01/04 11:37:59;;;;;;;17.27;14.80;;;2.40;92.70;;;;;;5085953;28;20616;-71
2021/01/04 11:40:27;;;;;;;17.83;15.87;;;2.40;93.10;;;;;;5076234;28;20436;-71
2021/01/04 11:42:53;;;;;;;20.07;16.47;;;2.40;93.50;;;;;;5074577;28;20195;-71
2021/01/04 11:45:21;;;;;;;19.93;16.43;;;2.40;93.40;;;;;;5070126;28;20203;-71
2021/01/04 11:47:47;;;;;;;23.57;20.40;;;2.40;93.80;;;;;;5079799;28;20266;-71
2021/01/04 11:50:15;;;;;;;20.10;17.03;;;2.40;94.10;;;;;;5081494;28;20265;-71
2021/01/04 11:52:41;;;;;;;27.77;22.63;;;2.40;93.90;;;;;;5072816;28;20191;-71
2021/01/04 11:55:11;;;;;;;21.73;18.63;;;2.30;94.00;;;;;;5080556;28;20254;-71
2021/01/04 11:57:38;;;;;;;21.23;17.80;;;2.20;94.50;;;;;;5079733;28;20251;-71
2021/01/04 12:00:11;;;;;;;22.27;17.80;;;2.20;94.90;;;;;;5078830;28;20181;-71
2021/01/04 12:02:36;;;;;;;21.53;18.73;;;2.30;94.90;;;;;;5073347;28;20293;-72
2021/01/04 12:05:04;;;;;;;20.23;17.90;;;2.20;94.00;;;;;;5072895;28;20288;-73
2021/01/04 12:07:30;;;;;;;21.37;17.37;;;2.20;94.30;;;;;;5075976;28;20218;-73
2021/01/04 12:09:55;;;;;;;27.10;20.87;;;2.20;93.90;;;;;;5080681;28;20216;-72
2021/01/04 12:12:21;;;;;;;21.93;18.43;;;2.20;93.60;;;;;;5084495;28;20220;-71
2021/01/04 12:14:47;;;;;;;23.17;19.63;;;2.20;93.90;;;;;;5085383;28;20198;-72
2021/01/04 12:17:14;;;;;;;24.30;19.97;;;2.20;94.20;;;;;;5085929;28;20187;-73
2021/01/04 12:19:40;;;;;;;26.20;21.97;;;2.20;94.40;;;;;;5082184;28;20200;-71
2021/01/04 12:22:09;;;;;;;25.70;21.40;;;2.20;94.60;;;;;;5086363;28;20687;-71
2021/01/04 12:24:34;;;;;;;28.37;22.13;;;2.10;94.70;;;;;;5085324;28;20665;-72
2021/01/04 12:27:01;;;;;;;27.50;22.33;;;2.10;95.10;;;;;;5085318;28;20208;-72
2021/01/04 12:29:27;;;;;;;28.83;23.47;;;2.10;95.40;;;;;;5084253;28;20204;-72
2021/01/04 12:31:53;;;;;;;31.20;24.53;;;2.10;94.70;;;;;;5087598;28;20177;-72
2021/01/04 12:34:19;;;;;;;32.10;25.67;;;2.10;95.10;;;;;;5090753;28;20233;-72
2021/01/04 12:36:45;;;;;;;29.10;23.33;;;2.10;95.10;;;;;;5091983;28;20183;-71
2021/01/04 12:39:11;;;;;;;30.23;25.43;;;2.10;94.90;;;;;;5088567;28;20184;-72
2021/01/04 12:41:39;;;;;;;30.97;25.00;;;2.10;95.80;;;;;;5078631;28;20264;-71
2021/01/04 12:44:05;;;;;;;33.47;25.87;;;2.10;96.20;;;;;;5084665;28;20200;-72
2021/01/04 12:46:31;;;;;;;30.47;23.03;;;2.10;96.30;;;;;;5087821;28;20214;-71
2021/01/04 12:48:57;;;;;;;30.43;23.40;;;2.10;96.30;;;;;;5086828;28;20244;-72
2021/01/04 12:51:23;;;;;;;30.13;22.60;;;2.10;96.30;;;;;;5086100;28;20182;-71
2021/01/04 12:53:48;;;;;;;29.27;23.93;;;2.10;95.60;;;;;;5086573;28;20175;-72
2021/01/04 12:56:17;;;;;;;32.23;24.77;;;2.10;95.50;;;;;;5083437;28;20204;-72
2021/01/04 12:58:44;;;;;;;34.87;27.43;;;2.10;96.20;;;;;;5086981;28;20187;-72
2021/01/04 13:01:12;;;;;;;33.00;26.40;;;2.10;96.70;;;;;;5084384;28;20185;-72
2021/01/04 13:03:37;;;;;;;30.87;24.27;;;2.10;96.70;;;;;;5083821;28;20170;-72
2021/01/04 13:06:03;;;;;;;33.37;24.97;;;2.10;96.30;;;;;;5082991;28;20786;-74
2021/01/04 13:08:29;;;;;;;37.17;26.80;;;2.10;96.20;;;;;;5080218;28;20226;-73
2021/01/04 13:10:56;;;;;;;40.50;28.30;;;2.10;96.40;;;;;;5082721;28;20180;-72
2021/01/04 13:13:21;;;;;;;33.43;24.77;;;2.00;96.40;;;;;;5080975;28;20704;-72
2021/01/04 13:15:47;;;;;;;36.50;26.80;;;2.10;96.00;;;;;;5076826;28;20234;-72
2021/01/04 13:18:13;;;;;;;42.40;30.70;;;2.00;96.00;;;;;;5079909;28;20566;-71
2021/01/04 13:20:38;;;;;;;34.80;25.63;;;2.10;96.30;;;;;;5085645;28;20239;-72
2021/01/04 13:23:04;;;;;;;45.80;31.97;;;2.00;96.00;;;;;;5087390;28;20194;-71